createdAt,value
2022-11-11T00:01:29.734Z,101285.61
2022-11-11T00:04:16.043Z,101285.44
2022-11-11T00:07:02.945Z,101280.94
2022-11-11T00:09:48.731Z,101280.23
2022-11-11T00:12:34.834Z,101287.16
2022-11-11T00:15:22.619Z,101287.00
2022-11-11T00:18:33.331Z,101286.31
2022-11-11T00:21:36.752Z,101290.14
2022-11-11T00:24:45.116Z,101287.36
2022-11-11T00:27:30.747Z,101291.86
2022-11-11T00:30:16.888Z,101289.27
2022-11-11T00:33:02.462Z,101289.43
2022-11-11T00:35:57.406Z,101286.13
2022-11-11T00:38:46.693Z,101281.63
2022-11-11T00:41:32.474Z,101280.73
2022-11-11T00:44:18.224Z,101285.08
2022-11-11T00:47:21.594Z,101284.88
2022-11-11T00:50:30.769Z,101287.29
2022-11-11T00:53:23.412Z,101284.69
2022-11-11T00:56:11.992Z,101286.77
2022-11-11T00:58:57.745Z,101286.75
2022-11-11T01:01:43.526Z,101287.45
2022-11-11T01:04:29.667Z,101288.98
2022-11-11T01:07:15.344Z,101282.23
2022-11-11T01:10:01.134Z,101281.86
2022-11-11T01:12:47.304Z,101282.20
2022-11-11T01:15:35.793Z,101286.52
2022-11-11T01:18:24.438Z,101285.45
2022-11-11T01:21:13.028Z,101284.39
2022-11-11T01:23:58.914Z,101283.67
2022-11-11T01:26:45.293Z,101279.87
2022-11-11T01:29:31.782Z,101278.83
2022-11-11T01:32:17.468Z,101280.89
2022-11-11T01:35:03.337Z,101276.19
2022-11-11T01:37:49.493Z,101279.64
2022-11-11T01:40:43.957Z,101275.30
2022-11-11T01:43:30.364Z,101278.23
2022-11-11T01:46:26.644Z,101273.73
2022-11-11T01:49:29.741Z,101269.55
2022-11-11T01:52:20.416Z,101262.80
2022-11-11T01:55:09.569Z,101263.67
2022-11-11T01:57:59.272Z,101256.89
2022-11-11T02:00:46.130Z,101252.71
2022-11-11T02:03:36.741Z,101251.29
2022-11-11T02:06:23.023Z,101252.50
2022-11-11T02:09:09.879Z,101251.82
2022-11-11T02:12:15.492Z,101249.23
2022-11-11T02:15:02.819Z,101245.95
2022-11-11T02:17:50.753Z,101247.67
2022-11-11T02:20:40.027Z,101248.19
2022-11-11T02:23:30.025Z,101243.69
2022-11-11T02:26:20.220Z,101243.02
2022-11-11T02:29:10.413Z,101241.48
2022-11-11T02:31:56.740Z,101243.40
2022-11-11T02:34:42.214Z,101246.54
2022-11-11T02:37:29.234Z,101253.66
2022-11-11T02:40:18.111Z,101263.20
2022-11-11T02:43:03.971Z,101271.86
2022-11-11T02:45:50.108Z,101271.17
2022-11-11T02:48:35.887Z,101270.84
2022-11-11T02:51:21.857Z,101269.11
2022-11-11T02:54:07.922Z,101275.36
2022-11-11T02:57:09.504Z,101282.30
2022-11-11T02:59:55.022Z,101282.11
2022-11-11T03:02:40.940Z,101283.34
2022-11-11T03:05:26.742Z,101281.96
2022-11-11T03:08:12.723Z,101284.39
2022-11-11T03:10:58.670Z,101282.14
2022-11-11T03:13:44.580Z,101281.29
2022-11-11T03:16:44.421Z,101284.23
2022-11-11T03:19:30.706Z,101293.06
2022-11-11T03:22:54.032Z,101298.09
2022-11-11T03:25:41.546Z,101292.90
2022-11-11T03:28:27.641Z,101291.19
2022-11-11T03:31:13.189Z,101281.14
2022-11-11T03:34:18.320Z,101287.21
2022-11-11T03:37:22.092Z,101289.46
2022-11-11T03:40:10.086Z,101285.31
2022-11-11T03:42:59.685Z,101289.98
2022-11-11T03:45:50.547Z,101297.08
2022-11-11T03:48:36.900Z,101301.59
2022-11-11T03:51:22.790Z,101304.20
2022-11-11T03:54:08.650Z,101301.59
2022-11-11T03:57:15.611Z,101300.56
2022-11-11T04:00:01.338Z,101301.41
2022-11-11T04:03:04.901Z,101305.05
2022-11-11T04:06:07.995Z,101301.08
2022-11-11T04:09:11.741Z,101300.88
2022-11-11T04:11:57.224Z,101302.09
2022-11-11T04:15:00.503Z,101303.14
2022-11-11T04:17:46.575Z,101303.48
2022-11-11T04:20:50.055Z,101304.86
2022-11-11T04:23:35.615Z,101318.54
2022-11-11T04:26:21.575Z,101326.50
2022-11-11T04:29:24.846Z,101333.10
2022-11-11T04:32:29.685Z,101333.60
2022-11-11T04:35:16.738Z,101340.17
2022-11-11T04:38:16.667Z,101344.85
2022-11-11T04:41:05.021Z,101336.02
2022-11-11T04:44:08.492Z,101332.38
2022-11-11T04:46:53.993Z,101326.14
2022-11-11T04:49:39.419Z,101325.80
2022-11-11T04:52:28.733Z,101326.84
2022-11-11T04:55:31.945Z,101324.57
2022-11-11T04:58:18.849Z,101324.05
2022-11-11T05:01:05.045Z,101324.39
2022-11-11T05:03:50.828Z,101326.99
2022-11-11T05:06:58.108Z,101326.48
2022-11-11T05:09:45.138Z,101326.64
2022-11-11T05:12:30.878Z,101332.17
2022-11-11T05:15:34.588Z,101344.81
2022-11-11T05:18:37.791Z,101337.19
2022-11-11T05:21:28.292Z,101329.58
2022-11-11T05:24:31.993Z,101317.45
2022-11-11T05:27:17.876Z,101313.28
2022-11-11T05:30:03.750Z,101311.38
2022-11-11T05:32:49.997Z,101318.31
2022-11-11T05:35:36.650Z,101324.19
2022-11-11T05:38:22.386Z,101320.73
2022-11-11T05:41:08.998Z,101321.43
2022-11-11T05:43:54.676Z,101317.09
2022-11-11T05:46:40.773Z,101313.61
2022-11-11T05:49:26.711Z,101315.02
2022-11-11T05:52:13.912Z,101319.68
2022-11-11T05:54:59.823Z,101323.48
2022-11-11T05:57:45.274Z,101327.27
2022-11-11T06:00:30.908Z,101334.01
2022-11-11T06:03:16.916Z,101332.80
2022-11-11T06:06:02.825Z,101330.36
2022-11-11T06:08:49.003Z,101324.63
2022-11-11T06:11:35.387Z,101326.55
2022-11-11T06:14:21.009Z,101326.19
2022-11-11T06:17:06.990Z,101318.91
2022-11-11T06:19:52.746Z,101319.26
2022-11-11T06:23:01.482Z,101319.42
2022-11-11T06:26:05.245Z,101320.77
2022-11-11T06:28:53.014Z,101325.27
2022-11-11T06:31:39.006Z,101332.88
2022-11-11T06:34:25.042Z,101333.55
2022-11-11T06:37:10.860Z,101330.10
2022-11-11T06:39:56.799Z,101326.29
2022-11-11T06:42:42.416Z,101329.55
2022-11-11T06:45:30.299Z,101333.18
2022-11-11T06:48:14.449Z,101343.37
2022-11-11T06:51:06.069Z,101349.09
2022-11-11T06:53:52.188Z,101348.05
2022-11-11T06:56:37.626Z,101342.29
2022-11-11T06:59:23.627Z,101344.17
2022-11-11T07:02:14.072Z,101343.14
2022-11-11T07:05:00.241Z,101345.72
2022-11-11T07:07:46.222Z,101340.84
2022-11-11T07:10:32.723Z,101325.42
2022-11-11T07:13:19.440Z,101325.58
2022-11-11T07:16:05.609Z,101331.28
2022-11-11T07:18:51.237Z,101332.52
2022-11-11T07:21:36.800Z,101330.75
2022-11-11T07:24:22.429Z,101325.70
2022-11-11T07:27:07.966Z,101323.93
2022-11-11T07:29:54.253Z,101321.14
2022-11-11T07:32:45.212Z,101315.92
2022-11-11T07:35:30.802Z,101310.01
2022-11-11T07:38:16.369Z,101304.29
2022-11-11T07:41:01.972Z,101308.23
2022-11-11T07:43:47.296Z,101303.16
2022-11-11T07:46:33.228Z,101302.25
2022-11-11T07:49:19.138Z,101302.74
2022-11-11T07:52:05.279Z,101297.00
2022-11-11T07:54:50.759Z,101302.17
2022-11-11T07:57:36.818Z,101307.48
2022-11-11T08:00:23.407Z,101307.95
2022-11-11T08:03:09.485Z,101316.05
2022-11-11T08:05:56.401Z,101316.89
2022-11-11T08:08:42.026Z,101319.77
2022-11-11T08:11:41.663Z,101325.80
2022-11-11T08:14:27.976Z,101334.19
2022-11-11T08:17:13.577Z,101333.94
2022-11-11T08:19:59.169Z,101333.45
2022-11-11T08:23:01.234Z,101330.36
2022-11-11T08:25:51.270Z,101330.63
2022-11-11T08:28:37.209Z,101329.53
2022-11-11T08:31:23.093Z,101331.85
2022-11-11T08:34:09.258Z,101338.74
2022-11-11T08:36:55.158Z,101344.41
2022-11-11T08:39:40.874Z,101347.27
2022-11-11T08:42:27.841Z,101340.61
2022-11-11T08:45:14.041Z,101339.66
2022-11-11T08:47:59.600Z,101330.02
2022-11-11T08:50:45.718Z,101332.55
2022-11-11T08:53:32.636Z,101341.02
2022-11-11T08:56:18.337Z,101344.16
2022-11-11T08:59:04.086Z,101346.98
2022-11-11T09:01:49.655Z,101346.04
2022-11-11T09:04:44.983Z,101346.14
2022-11-11T09:07:31.867Z,101353.34
2022-11-11T09:10:17.945Z,101357.92
2022-11-11T09:13:04.725Z,101361.13
2022-11-11T09:15:50.466Z,101351.33
2022-11-11T09:18:36.386Z,101351.80
2022-11-11T09:21:24.212Z,101349.52
2022-11-11T09:24:10.029Z,101354.69
2022-11-11T09:26:56.230Z,101344.04
2022-11-11T09:29:42.748Z,101339.69
2022-11-11T09:32:28.433Z,101333.59
2022-11-11T09:35:14.240Z,101332.38
2022-11-11T09:38:01.945Z,101325.73
2022-11-11T09:40:59.228Z,101325.67
2022-11-11T09:43:53.785Z,101324.09
2022-11-11T09:46:47.735Z,101331.03
2022-11-11T09:49:46.634Z,101334.34
2022-11-11T09:52:38.255Z,101333.31
2022-11-11T09:55:28.683Z,101334.23
2022-11-11T09:58:20.279Z,101327.99
2022-11-11T10:01:12.270Z,101322.61
2022-11-11T10:04:10.639Z,101323.00
2022-11-11T10:07:02.085Z,101319.91
2022-11-11T10:09:52.070Z,101312.65
2022-11-11T10:12:44.290Z,101305.59
2022-11-11T10:15:35.450Z,101312.03
2022-11-11T10:18:42.021Z,101313.95
2022-11-11T10:21:57.952Z,101307.20
2022-11-11T10:24:47.207Z,101307.57
2022-11-11T10:27:37.211Z,101300.06
2022-11-11T10:30:31.163Z,101290.90
2022-11-11T10:33:25.970Z,101290.01
2022-11-11T10:36:19.613Z,101293.96
2022-11-11T10:39:06.921Z,101302.11
2022-11-11T10:41:53.566Z,101302.96
2022-11-11T10:44:39.518Z,101298.89
2022-11-11T10:47:40.947Z,101307.70
2022-11-11T10:50:33.179Z,101311.91
2022-11-11T10:53:27.032Z,101306.10
2022-11-11T10:56:19.377Z,101306.16
2022-11-11T10:59:13.020Z,101298.55
2022-11-11T11:02:03.207Z,101291.89
2022-11-11T11:04:54.680Z,101292.01
2022-11-11T11:07:48.099Z,101290.07
2022-11-11T11:10:40.829Z,101291.77
2022-11-11T11:13:34.049Z,101283.08
2022-11-11T11:16:24.092Z,101275.79
2022-11-11T11:19:20.978Z,101281.01
2022-11-11T11:22:06.726Z,101281.35
2022-11-11T11:24:52.666Z,101282.59
2022-11-11T11:27:38.840Z,101270.23
2022-11-11T11:30:27.158Z,101266.48
2022-11-11T11:33:13.112Z,101258.11
2022-11-11T11:35:58.627Z,101257.27
2022-11-11T11:38:46.811Z,101259.58
2022-11-11T11:41:43.376Z,101263.06
2022-11-11T11:44:30.995Z,101264.99
2022-11-11T11:47:22.273Z,101264.87
2022-11-11T11:50:31.239Z,101266.80
2022-11-11T11:53:30.025Z,101274.61
2022-11-11T11:56:26.673Z,101284.34
2022-11-11T11:59:20.266Z,101282.05
2022-11-11T12:02:24.148Z,101280.11
2022-11-11T12:05:19.720Z,101263.14
2022-11-11T12:08:26.423Z,101255.23
2022-11-11T12:11:19.826Z,101257.49
2022-11-11T12:14:27.436Z,101255.77
2022-11-11T12:17:26.456Z,101260.92
2022-11-11T12:20:22.041Z,101271.23
2022-11-11T12:23:28.752Z,101268.63
2022-11-11T12:26:20.992Z,101271.66
2022-11-11T12:29:32.901Z,101275.77
2022-11-11T12:32:33.794Z,101276.04
2022-11-11T12:35:34.680Z,101286.23
2022-11-11T12:38:44.323Z,101286.90
2022-11-11T12:41:42.214Z,101283.05
2022-11-11T12:44:32.430Z,101281.68
2022-11-11T12:47:36.554Z,101282.84
2022-11-11T12:50:26.298Z,101300.70
2022-11-11T12:53:26.331Z,101297.86
2022-11-11T12:56:24.687Z,101291.67
2022-11-11T12:59:21.688Z,101286.75
2022-11-11T13:02:22.165Z,101271.58
2022-11-11T13:05:15.946Z,101268.53
2022-11-11T13:08:20.832Z,101266.89
2022-11-11T13:11:17.945Z,101268.21
2022-11-11T13:14:22.047Z,101266.70
2022-11-11T13:17:15.109Z,101264.98
2022-11-11T13:20:05.189Z,101262.42
2022-11-11T13:22:51.859Z,101257.21
2022-11-11T13:25:49.468Z,101259.00
2022-11-11T13:28:42.212Z,101259.22
2022-11-11T13:31:35.519Z,101251.17
2022-11-11T13:34:22.305Z,101253.15
2022-11-11T13:37:10.548Z,101252.83
2022-11-11T13:40:01.744Z,101251.98
2022-11-11T13:42:53.723Z,101258.59
2022-11-11T13:45:42.520Z,101257.20
2022-11-11T13:48:32.457Z,101261.95
2022-11-11T13:51:26.325Z,101261.61
2022-11-11T13:54:25.973Z,101256.61
2022-11-11T13:57:22.593Z,101258.05
2022-11-11T14:00:25.191Z,101256.89
2022-11-11T14:03:34.899Z,101256.74
2022-11-11T14:06:57.859Z,101259.90
2022-11-11T14:10:03.195Z,101257.31
2022-11-11T14:12:50.472Z,101258.02
2022-11-11T14:15:43.066Z,101256.33
2022-11-11T14:18:41.085Z,101262.29
2022-11-11T14:21:49.984Z,101262.34
2022-11-11T14:24:43.216Z,101258.90
2022-11-11T14:27:32.295Z,101258.25
2022-11-11T14:30:34.758Z,101263.40
2022-11-11T14:33:32.441Z,101263.98
2022-11-11T14:36:25.385Z,101263.37
2022-11-11T14:39:22.329Z,101264.44
2022-11-11T14:42:28.896Z,101273.67
2022-11-11T14:46:00.258Z,101284.33
2022-11-11T14:49:11.291Z,101283.50
2022-11-11T14:52:00.200Z,101280.77
2022-11-11T14:55:16.616Z,101273.83
2022-11-11T14:58:11.459Z,101273.54
2022-11-11T15:01:04.737Z,101279.41
2022-11-11T15:03:53.772Z,101275.59
2022-11-11T15:06:45.928Z,101267.29
2022-11-11T15:09:49.465Z,101269.96
2022-11-11T15:12:46.758Z,101282.57
2022-11-11T15:15:40.713Z,101283.98
2022-11-11T15:18:53.317Z,101290.08
2022-11-11T15:21:45.144Z,101288.22
2022-11-11T15:24:41.838Z,101290.89
2022-11-11T15:27:35.232Z,101289.20
2022-11-11T15:30:22.942Z,101293.73
2022-11-11T15:33:19.769Z,101292.73
2022-11-11T15:36:15.533Z,101296.22
2022-11-11T15:39:06.475Z,101293.76
2022-11-11T15:41:54.410Z,101297.23
2022-11-11T15:44:40.354Z,101302.10
2022-11-11T15:47:30.427Z,101313.39
2022-11-11T15:50:36.719Z,101319.80
2022-11-11T15:53:29.523Z,101329.48
2022-11-11T15:56:33.507Z,101328.41
2022-11-11T15:59:23.942Z,101324.93
2022-11-11T16:02:23.748Z,101319.73
2022-11-11T16:05:27.315Z,101320.92
2022-11-11T16:08:21.680Z,101321.98
2022-11-11T16:11:08.004Z,101323.38
2022-11-11T16:14:02.552Z,101324.79
2022-11-11T16:16:52.122Z,101329.31
2022-11-11T16:19:47.815Z,101332.64
2022-11-11T16:22:40.841Z,101329.50
2022-11-11T16:25:26.925Z,101325.48
2022-11-11T16:28:14.743Z,101322.35
2022-11-11T16:30:58.536Z,101322.19
2022-11-11T16:33:43.963Z,101326.04
2022-11-11T16:36:29.931Z,101319.77
2022-11-11T16:39:27.340Z,101318.02
2022-11-11T16:42:23.556Z,101315.60
2022-11-11T16:45:23.471Z,101310.57
2022-11-11T16:48:42.891Z,101309.55
2022-11-11T16:51:43.217Z,101305.05
2022-11-11T16:54:32.808Z,101307.85
2022-11-11T16:57:22.703Z,101307.55
2022-11-11T17:00:14.104Z,101314.35
2022-11-11T17:03:15.869Z,101307.02
2022-11-11T17:06:05.081Z,101312.92
2022-11-11T17:08:52.137Z,101318.44
2022-11-11T17:11:47.836Z,101325.18
2022-11-11T17:14:35.444Z,101335.55
2022-11-11T17:17:21.586Z,101338.30
2022-11-11T17:20:10.568Z,101349.58
2022-11-11T17:22:58.089Z,101352.81
2022-11-11T17:25:41.867Z,101351.25
2022-11-11T17:28:28.615Z,101354.73
2022-11-11T17:31:16.340Z,101356.29
2022-11-11T17:34:06.548Z,101349.33
2022-11-11T17:36:52.643Z,101350.36
2022-11-11T17:39:39.283Z,101355.44
2022-11-11T17:42:25.343Z,101353.19
2022-11-11T17:45:12.927Z,101350.20
2022-11-11T17:47:57.645Z,101347.92
2022-11-11T17:50:43.618Z,101346.90
2022-11-11T17:53:29.660Z,101349.52
2022-11-11T17:56:15.828Z,101347.63
2022-11-11T17:59:02.013Z,101348.38
2022-11-11T18:01:47.681Z,101346.13
2022-11-11T18:04:33.542Z,101348.59
2022-11-11T18:07:19.258Z,101352.21
2022-11-11T18:10:05.777Z,101350.25
2022-11-11T18:12:51.659Z,101342.41
2022-11-11T18:15:37.928Z,101339.44
2022-11-11T18:18:23.577Z,101332.31
2022-11-11T18:21:10.077Z,101325.88
2022-11-11T18:23:56.340Z,101320.83
2022-11-11T18:26:41.939Z,101318.91
2022-11-11T18:29:28.673Z,101317.52
2022-11-11T18:32:14.250Z,101319.95
2022-11-11T18:35:00.144Z,101330.38
2022-11-11T18:37:46.824Z,101334.08
2022-11-11T18:40:33.700Z,101339.82
2022-11-11T18:43:19.729Z,101344.69
2022-11-11T18:46:11.045Z,101343.01
2022-11-11T18:48:58.215Z,101349.45
2022-11-11T18:51:44.368Z,101352.05
2022-11-11T18:54:30.767Z,101352.95
2022-11-11T18:57:17.409Z,101355.39
2022-11-11T19:00:03.668Z,101356.80
2022-11-11T19:02:49.364Z,101362.36
2022-11-11T19:05:35.311Z,101362.02
2022-11-11T19:08:20.818Z,101361.15
2022-11-11T19:11:08.764Z,101364.44
2022-11-11T19:13:54.833Z,101370.31
2022-11-11T19:16:42.019Z,101373.97
2022-11-11T19:19:27.879Z,101372.27
2022-11-11T19:22:13.616Z,101369.35
2022-11-11T19:25:00.434Z,101376.83
2022-11-11T19:27:46.155Z,101381.00
2022-11-11T19:30:31.856Z,101387.46
2022-11-11T19:33:17.335Z,101392.16
2022-11-11T19:36:04.740Z,101394.05
2022-11-11T19:38:49.734Z,101403.08
2022-11-11T19:41:35.145Z,101408.65
2022-11-11T19:44:20.749Z,101415.75
2022-11-11T19:47:07.079Z,101415.73
2022-11-11T19:49:52.789Z,101416.39
2022-11-11T19:52:38.432Z,101411.69
2022-11-11T19:55:24.270Z,101411.70
2022-11-11T19:58:09.863Z,101416.05
2022-11-11T20:00:56.100Z,101408.91
2022-11-11T20:03:42.910Z,101408.92
2022-11-11T20:06:31.267Z,101411.04
2022-11-11T20:09:17.876Z,101409.14
2022-11-11T20:12:03.800Z,101400.30
2022-11-11T20:14:49.846Z,101391.79
2022-11-11T20:17:35.981Z,101394.23
2022-11-11T20:20:21.996Z,101384.87
2022-11-11T20:23:11.068Z,101386.59
2022-11-11T20:25:57.762Z,101385.21
2022-11-11T20:28:43.994Z,101396.15
2022-11-11T20:31:30.149Z,101398.40
2022-11-11T20:34:16.229Z,101396.14
2022-11-11T20:37:01.758Z,101405.85
2022-11-11T20:39:47.582Z,101403.74
2022-11-11T20:42:33.250Z,101410.34
2022-11-11T20:45:19.476Z,101419.02
2022-11-11T20:48:08.923Z,101416.23
2022-11-11T20:51:01.582Z,101421.13
2022-11-11T20:53:47.979Z,101417.65
2022-11-11T20:56:33.682Z,101420.24
2022-11-11T20:59:19.548Z,101420.77
2022-11-11T21:02:05.313Z,101427.08
2022-11-11T21:04:51.144Z,101425.85
2022-11-11T21:07:36.601Z,101426.90
2022-11-11T21:10:22.170Z,101432.30
2022-11-11T21:13:08.095Z,101429.38
2022-11-11T21:15:53.968Z,101424.23
2022-11-11T21:18:39.970Z,101425.13
2022-11-11T21:21:28.512Z,101432.96
2022-11-11T21:24:14.579Z,101434.52
2022-11-11T21:27:00.290Z,101432.62
2022-11-11T21:29:45.905Z,101427.05
2022-11-11T21:32:31.582Z,101427.39
2022-11-11T21:35:17.649Z,101423.73
2022-11-11T21:38:03.399Z,101424.60
2022-11-11T21:40:48.918Z,101428.42
2022-11-11T21:43:35.421Z,101427.54
2022-11-11T21:46:22.984Z,101427.02
2022-11-11T21:49:08.729Z,101430.67
2022-11-11T21:51:54.329Z,101433.63
2022-11-11T21:54:40.517Z,101436.20
2022-11-11T21:57:26.448Z,101436.36
2022-11-11T22:00:14.903Z,101434.45
2022-11-11T22:03:00.760Z,101436.56
2022-11-11T22:05:46.396Z,101442.48
2022-11-11T22:08:32.429Z,101440.92
2022-11-11T22:11:20.360Z,101445.09
2022-11-11T22:14:07.357Z,101446.45
2022-11-11T22:16:53.367Z,101443.29
2022-11-11T22:19:39.666Z,101440.33
2022-11-11T22:22:25.270Z,101436.50
2022-11-11T22:25:11.775Z,101436.00
2022-11-11T22:27:57.091Z,101440.37
2022-11-11T22:30:42.796Z,101442.23
2022-11-11T22:33:28.199Z,101444.13
2022-11-11T22:36:16.514Z,101444.14
2022-11-11T22:39:03.057Z,101444.11
2022-11-11T22:41:48.691Z,101446.21
2022-11-11T22:44:34.220Z,101442.06
2022-11-11T22:47:20.100Z,101438.77
2022-11-11T22:50:06.789Z,101443.30
2022-11-11T22:52:52.679Z,101439.17
2022-11-11T22:55:38.495Z,101435.70
2022-11-11T22:58:24.042Z,101437.61
2022-11-11T23:01:13.835Z,101440.70
2022-11-11T23:04:01.627Z,101436.36
2022-11-11T23:06:48.242Z,101441.18
2022-11-11T23:09:36.695Z,101438.05
2022-11-11T23:12:22.631Z,101440.27
2022-11-11T23:15:10.065Z,101436.27
2022-11-11T23:17:54.505Z,101438.67
2022-11-11T23:20:40.195Z,101439.06
2022-11-11T23:23:26.700Z,101437.89
2022-11-11T23:26:14.776Z,101440.16
2022-11-11T23:29:00.762Z,101441.20
2022-11-11T23:31:46.733Z,101438.77
2022-11-11T23:34:33.032Z,101437.21
2022-11-11T23:37:18.928Z,101435.67
2022-11-11T23:40:04.650Z,101441.23
2022-11-11T23:42:50.995Z,101443.14
2022-11-11T23:45:37.335Z,101444.88
2022-11-11T23:48:25.336Z,101446.44
2022-11-11T23:51:11.575Z,101445.56
2022-11-11T23:53:58.035Z,101449.91
2022-11-11T23:56:43.823Z,101452.52
2022-11-11T23:59:30.129Z,101457.55
